Latest Weather Observations for Mount Read

IDT60801

Issued at 5:11 pm EDT Wednesday 21 November 2018 (issued every 10 minutes, with the page automatically refreshed every 10 minutes)

About weather observations | Map of weather stations | Latest weather observations for TAS | Other Formats
Station Details ID: 097085 Name: MOUNT READ Lat: -41.84 Lon: 145.54 Height: 1119.5 m
Data from the previous 72 hours. | See also: Recent months at Mount Read
Date/Time
EDT
Temp
°C
App
Temp
°C
Dew
Point
°C
Rel
Hum
%
Delta-T
°C
Wind Press
QNH
hPa
Press
MSL
hPa
Rain since
9am
mm
Dir  Spd
km/h
Gust
km/h
Spd
kts
Gust
kts
21/05:00pm 7.5 0.2 5.6 88 0.9 SW 33 43 18 23 996.9 996.2 0.6
21/04:30pm 7.5 1.3 6.3 92 0.6 SSW 28 35 15 19 997.0 996.3 0.6
21/04:00pm 7.1 0.3 5.3 88 0.9 SSW 30 35 16 19 997.0 996.3 0.6
21/03:30pm 7.8 2.0 6.1 89 0.8 SSW 26 33 14 18 997.0 996.3 0.6
21/03:00pm 7.2 2.4 7.2 100 0.0 SSW 22 28 12 15 997.4 996.7 0.6
21/02:30pm 7.0 1.7 7.0 100 0.0 S 24 32 13 17 997.5 996.8 0.6
21/02:00pm 6.8 2.3 6.8 100 0.0 S 20 30 11 16 997.8 997.1 0.6
21/01:30pm 7.5 3.3 7.5 100 0.0 S 19 28 10 15 997.6 996.9 0.6
21/01:00pm 6.5 2.1 6.5 100 0.0 SSW 19 26 10 14 998.0 997.4 0.6
21/12:30pm 6.8 1.5 6.8 100 0.0 SSW 24 32 13 17 998.0 997.4 0.6
21/12:00pm 6.7 1.4 6.7 100 0.0 SSW 24 30 13 16 998.0 997.4 0.6
21/11:30am 6.7 1.0 6.7 100 0.0 SSW 26 32 14 17 998.0 997.4 0.6
21/11:00am 6.4 0.6 6.4 100 0.0 SSW 26 33 14 18 998.0 997.4 0.4
21/10:30am 6.1 0.3 6.1 100 0.0 SSW 26 33 14 18 998.0 997.4 0.4
21/10:00am 5.9 1.2 5.9 100 0.0 SW 20 30 11 16 998.0 997.4 0.4
21/09:30am 5.5 -0.5 5.5 100 0.0 SW 26 32 14 17 998.0 997.4 0.4
21/09:00am 6.1 1.4 6.1 100 0.0 SSW 20 26 11 14 998.2 997.5 43.2
21/08:30am 6.0 1.5 6.0 100 0.0 SSW 19 24 10 13 998.4 997.7 43.2
21/08:00am 6.3 1.3 6.3 100 0.0 SW 22 30 12 16 997.9 997.2 43.2
21/07:30am 5.8 2.0 5.8 100 0.0 SW 15 24 8 13 998.3 997.6 43.0
21/07:00am 5.9 1.7 5.9 100 0.0 SSW 17 22 9 12 997.8 997.1 42.6
21/06:30am 5.6 0.4 5.6 100 0.0 SW 22 28 12 15 997.9 997.2 42.4
21/06:00am 5.8 -0.1 5.8 100 0.0 SW 26 33 14 18 997.7 997.0 42.4
21/05:30am 5.8 -1.2 5.8 100 0.0 SW 32 37 17 20 997.4 996.7 42.4
21/05:00am 6.0 -1.2 6.0 100 0.0 SW 33 44 18 24 997.3 996.6 42.2
21/04:30am 6.6 0.1 6.6 100 0.0 SW 30 39 16 21 997.0 996.3 41.8
21/04:00am 7.1 0.3 7.1 100 0.0 WSW 32 41 17 22 997.9 997.2 39.4
21/03:46am 7.4 -0.2 7.4 100 0.0 WSW 37 43 20 23 997.3 996.6 38.8
21/03:30am 8.7 4.2 8.7 100 0.0 WNW 22 32 12 17 997.7 997.0 38.0
21/03:00am 9.6 4.2 9.6 100 0.0 N 28 39 15 21 997.9 997.2 34.8
21/02:30am 9.7 5.1 9.7 100 0.0 N 24 33 13 18 998.4 997.7 34.4
21/02:00am 9.7 3.4 9.7 100 0.0 N 33 52 18 28 998.4 997.7 31.6
21/01:30am 9.5 3.3 9.5 100 0.0 N 32 43 17 23 999.2 998.5 31.2
21/01:02am 9.3 1.8 9.3 100 0.0 NW 39 50 21 27 999.8 999.2 27.4
21/01:00am 9.0 1.4 9.0 100 0.0 NW 39 50 21 27 999.9 999.3 27.2
21/12:39am 9.3 2.9 9.3 100 0.0 NNW 33 65 18 35 1000.2 999.5 20.2
21/12:32am 9.8 2.4 9.8 100 0.0 NW 39 61 21 33 1000.1 999.4 18.4
21/12:30am 9.7 2.6 9.7 100 0.0 NW 37 61 20 33 999.9 999.3 17.6
21/12:18am 9.9 3.3 9.9 100 0.0 NNW 35 69 19 37 1000.4 999.8 13.8
21/12:16am 10.1 2.4 10.1 100 0.0 N 41 69 22 37 1000.6 1000.0 12.8
21/12:02am 10.1 0.7 10.1 100 0.0 NNE 50 69 27 37 999.5 998.8 9.6
21/12:00am 10.1 0.7 10.1 100 0.0 NNE 50 69 27 37 999.6 999.0 9.6
 
Date/Time
EDT
Temp
°C
App
Temp
°C
Dew
Point
°C
Rel
Hum
%
Delta-T
°C
Wind Press
QNH
hPa
Press
MSL
hPa
Rain since
9am
mm
Dir  Spd
km/h
Gust
km/h
Spd
kts
Gust
kts
20/11:40pm 10.1 0.7 10.1 100 0.0 NNE 50 78 27 42 999.2 998.5 9.0
20/11:30pm 10.1 0.7 10.1 100 0.0 NNE 50 61 27 33 999.8 999.2 8.8
20/11:00pm 10.1 -0.1 10.1 100 0.0 NNE 54 72 29 39 999.8 999.2 7.8
20/10:38pm 10.2 -0.3 10.2 100 0.0 NNE 56 74 30 40 999.9 999.3 6.6
20/10:30pm 10.2 0.0 10.2 100 0.0 NNE 54 72 29 39 1000.1 999.4 6.6
20/10:00pm 10.2 2.5 10.2 100 0.0 NNE 41 61 22 33 1000.9 1000.3 5.8
20/09:30pm 10.2 1.2 10.2 100 0.0 NNE 48 74 26 40 1001.2 1000.6 4.8
20/09:00pm 10.2 0.4 10.2 100 0.0 NNE 52 72 28 39 1001.1 1000.4 4.8
20/08:30pm 10.2 1.6 10.2 100 0.0 NNE 46 72 25 39 1001.7 1001.1 4.6
20/08:05pm 10.3 2.1 10.3 100 0.0 NNE 44 70 24 38 1002.3 1001.7 4.6
20/08:00pm 10.3 1.7 10.3 100 0.0 NNE 46 59 25 32 1002.5 1001.9 4.6
20/07:30pm 10.5 4.0 10.5 100 0.0 NNE 35 56 19 30 1003.2 1002.6 4.0
20/07:28pm 10.5 4.0 10.5 100 0.0 NNE 35 56 19 30 1003.2 1002.6 4.0
20/07:00pm 10.6 4.5 10.6 100 0.0 NNE 33 43 18 23 1003.7 1003.2 3.2
20/06:30pm 10.6 5.1 10.6 100 0.0 NNE 30 39 16 21 1004.2 1003.6 2.6
20/06:00pm 10.6 4.7 10.6 100 0.0 NNE 32 43 17 23 1004.4 1003.9 2.2
20/05:30pm 10.9 5.9 10.9 100 0.0 NNE 28 37 15 20 1004.8 1004.3 1.8
20/05:00pm 10.7 5.6 10.7 100 0.0 N 28 37 15 20 1005.4 1004.9 1.8
20/04:30pm 11.2 6.3 11.2 100 0.0 N 28 33 15 18 1005.6 1005.1 1.8
20/04:00pm 11.0 7.7 11.0 100 0.0 N 19 26 10 14 1006.1 1005.6 1.8
20/03:30pm 10.9 6.6 10.9 100 0.0 N 24 35 13 19 1006.5 1006.1 1.6
20/03:00pm 10.7 5.6 10.7 100 0.0 N 28 37 15 20 1007.0 1006.5 1.2
20/02:30pm 10.3 4.4 10.3 100 0.0 NNE 32 44 17 24 1007.3 1006.9 1.0
20/02:13pm 10.1 2.8 10.1 100 0.0 NNE 39 57 21 31 1007.1 1006.6 1.0
20/02:00pm 10.0 3.0 10.0 100 0.0 NNE 37 54 20 29 1007.3 1006.9 0.8
20/01:30pm 10.0 1.9 10.0 100 0.0 NNE 43 57 23 31 1007.3 1006.9 0.6
20/01:01pm 9.8 0.7 9.8 100 0.0 NNE 48 69 26 37 1007.3 1006.9 0.2
20/01:00pm 9.8 0.3 9.8 100 0.0 NNE 50 69 27 37 1007.5 1007.1 0.2
20/12:30pm 9.4 -1.3 9.4 100 0.0 NNE 56 76 30 41 1007.9 1007.4 0.2
20/12:00pm 9.1 0.7 9.0 99 0.1 NNE 43 57 23 31 1008.3 1007.9 0.2
20/11:36am 9.9 1.0 9.1 95 0.4 NNE 46 67 25 36 1008.4 1008.0 0.2
20/11:30am 9.6 1.2 9.0 96 0.3 NNE 43 56 23 30 1008.6 1008.2 0.2
20/11:00am 10.3 -0.5 7.7 84 1.3 N 54 65 29 35 1008.9 1008.5 0.0
20/10:30am 10.4 1.6 7.1 80 1.7 NNE 43 63 23 34 1009.1 1008.7 0.0
20/10:10am 11.0 2.0 6.6 74 2.2 NNE 43 61 23 33 1008.8 1008.3 0.0
20/10:00am 11.2 1.3 6.5 73 2.4 NNE 48 63 26 34 1009.1 1008.7 0.0
20/09:30am 11.8 0.8 5.2 64 3.2 NNE 52 76 28 41 1008.5 1008.1 0.0
20/09:00am 11.3 -0.7 5.0 65 3.1 NNE 57 80 31 43 1008.6 1008.2 0.0
20/08:33am 10.8 -2.7 4.9 67 2.9 NNE 65 85 35 46 1008.0 1007.5 0.0
20/08:30am 11.4 -2.5 4.8 64 3.2 NNE 67 85 36 46 1008.3 1007.9 0.0
20/08:00am 9.8 -4.0 5.2 73 2.2 NNE 67 89 36 48 1008.5 1008.1 0.0
20/07:46am 9.8 -2.5 5.2 73 2.2 NNE 59 91 32 49 1008.2 1007.8 0.0
20/07:41am 9.9 -2.5 4.9 71 2.4 NNE 59 83 32 45 1008.4 1008.0 0.0
20/07:38am 9.7 -2.7 4.5 70 2.5 NNE 59 83 32 45 1009.0 1008.6 0.0
20/07:31am 10.9 -2.8 3.7 61 3.4 NNE 65 85 35 46 1009.0 1008.6 0.0
20/07:30am 10.9 -2.8 3.9 62 3.3 NNE 65 85 35 46 1008.8 1008.3 0.0
20/07:25am 10.3 -2.6 4.2 66 2.9 NNE 61 85 33 46 1008.8 1008.3 0.0
20/07:00am 10.5 -0.8 3.5 62 3.3 NNE 52 72 28 39 1009.0 1008.6 0.0
20/06:33am 9.9 0.1 3.2 63 3.1 NNE 44 63 24 34 1009.2 1008.8 0.0
20/06:30am 9.3 -0.9 3.3 66 2.8 NNE 46 63 25 34 1009.1 1008.7 0.0
20/06:02am 8.8 -1.8 3.2 68 2.6 NNE 48 70 26 38 1009.3 1008.9 0.0
20/06:00am 8.9 -1.0 2.9 66 2.7 NNE 44 61 24 33 1009.4 1009.0 0.0
20/05:30am 8.5 -1.7 3.4 70 2.3 NE 46 67 25 36 1009.9 1009.5 0.0
20/05:09am 8.3 -1.2 3.8 73 2.1 NE 43 61 23 33 1010.1 1009.7 0.0
20/05:00am 8.2 -1.8 4.2 76 1.9 NE 46 61 25 33 1010.0 1009.6 0.0
20/04:36am 7.6 -1.8 4.2 79 1.6 NE 43 61 23 33 1010.3 1009.9 0.0
20/04:30am 7.4 -1.7 4.2 80 1.5 NNE 41 56 22 30 1010.5 1010.2 0.0
20/04:00am 7.5 -0.8 4.1 79 1.6 NNE 37 61 20 33 1011.0 1010.6 0.0
20/03:40am 7.5 -0.8 4.3 80 1.5 NNE 37 57 20 31 1011.0 1010.6 0.0
20/03:30am 7.2 -1.0 4.7 84 1.2 NNE 37 54 20 29 1011.2 1010.9 0.0
20/03:00am 7.0 -1.5 5.0 87 0.9 NE 39 59 21 32 1011.8 1011.4 0.0
20/02:53am 7.3 -0.5 5.0 85 1.1 NE 35 54 19 29 1011.9 1011.5 0.0
20/02:30am 6.8 -2.4 5.6 92 0.6 NNE 43 59 23 32 1011.6 1011.3 0.0
20/02:00am 6.3 -1.3 6.0 98 0.1 NNE 35 50 19 27 1012.4 1012.1 0.0
20/01:30am 6.4 -1.2 5.8 96 0.3 NNE 35 50 19 27 1013.0 1012.7 0.0
20/01:00am 6.6 -2.5 5.7 94 0.4 NNE 43 54 23 29 1013.3 1013.0 0.0
20/12:30am 6.3 -2.7 6.2 99 0.0 NNE 43 52 23 28 1013.7 1013.4 0.0
20/12:00am 6.4 -1.2 5.8 96 0.3 NNE 35 54 19 29 1014.1 1013.8 0.0
 
Date/Time
EDT
Temp
°C
App
Temp
°C
Dew
Point
°C
Rel
Hum
%
Delta-T
°C
Wind Press
QNH
hPa
Press
MSL
hPa
Rain since
9am
mm
Dir  Spd
km/h
Gust
km/h
Spd
kts
Gust
kts
19/11:30pm 7.1 -1.3 5.6 90 0.7 NNE 39 59 21 32 1014.1 1013.8 0.0
19/11:24pm 7.0 -1.7 5.8 92 0.6 NNE 41 59 22 32 1014.1 1013.8 0.0
19/11:00pm 7.0 -1.2 6.4 96 0.3 NNE 39 54 21 29 1014.3 1014.1 0.0
19/10:30pm 7.4 -0.2 5.7 89 0.8 NNE 35 54 19 29 1014.7 1014.4 0.0
19/10:28pm 7.4 0.2 6.0 91 0.7 NNE 33 54 18 29 1014.7 1014.4 0.0
19/10:00pm 7.4 1.9 5.9 90 0.7 NNE 24 39 13 21 1015.3 1015.1 0.0
19/09:30pm 7.8 2.6 5.3 84 1.2 NNE 22 37 12 20 1015.4 1015.2 0.0
19/09:00pm 7.8 3.0 5.4 85 1.1 N 20 26 11 14 1015.9 1015.7 0.0
19/08:30pm 8.5 3.6 4.9 78 1.7 N 20 32 11 17 1015.8 1015.5 0.0
19/08:00pm 9.2 1.7 4.2 71 2.4 NNE 33 50 18 27 1015.6 1015.3 0.0
19/07:30pm 9.8 0.8 4.4 69 2.6 NNE 41 50 22 27 1015.3 1015.1 0.0
19/07:00pm 10.5 1.5 4.6 67 2.8 NNE 41 52 22 28 1015.4 1015.2 0.0
19/06:30pm 11.4 2.0 4.2 61 3.5 N 43 54 23 29 1015.6 1015.3 0.0
19/06:00pm 11.9 2.5 4.6 61 3.5 NNE 43 52 23 28 1015.8 1015.5 0.0
19/05:30pm 12.9 4.0 5.1 59 3.9 NNE 41 52 22 28 1016.0 1015.8 0.0
19/05:00pm 12.9 3.7 5.3 60 3.8 NNE 43 56 23 30 1016.1 1015.9 0.0
19/04:30pm 13.7 5.0 5.8 59 4.0 NNE 41 54 22 29 1016.1 1015.9 0.0
19/04:00pm 14.0 5.2 5.4 56 4.3 NNE 41 59 22 32 1016.4 1016.2 0.0
19/03:30pm 13.7 4.4 5.1 56 4.3 NNE 43 57 23 31 1017.0 1016.8 0.0
19/03:00pm 14.2 4.5 3.9 50 5.0 NNE 44 57 24 31 1017.1 1016.9 0.0
19/02:30pm 15.3 6.6 5.8 53 4.8 NNE 41 56 22 30 1017.4 1017.3 0.0
19/02:00pm 15.1 5.7 4.2 48 5.4 NNE 43 57 23 31 1017.7 1017.5 0.0
19/01:30pm 13.3 4.3 4.7 56 4.2 NNE 41 57 22 31 1018.1 1017.9 0.0
19/01:07pm 14.0 5.4 4.9 54 4.5 NNE 39 57 21 31 1018.5 1018.3 0.0
19/01:00pm 14.0 5.1 4.9 54 4.5 NNE 41 54 22 29 1018.8 1018.6 0.0
19/12:41pm 13.7 5.2 5.3 57 4.2 NNE 39 59 21 32 1018.9 1018.7 0.0
19/12:30pm 13.4 4.3 5.8 60 3.8 NNE 43 54 23 29 1018.8 1018.6 0.0
19/12:00pm 13.6 5.2 5.7 59 4.0 NNE 39 52 21 28 1019.1 1019.0 0.0
19/11:30am 12.8 3.4 5.2 60 3.8 NNE 44 57 24 31 1019.3 1019.2 0.0
19/11:00am 12.6 3.7 5.1 60 3.7 NNE 41 57 22 31 1019.7 1019.5 0.0
19/10:30am 12.1 3.2 5.0 62 3.5 NNE 41 63 22 34 1019.8 1019.7 0.0
19/10:00am 11.5 3.4 5.4 66 3.0 NNE 37 50 20 27 1020.0 1019.9 0.0
19/09:30am 10.9 4.2 5.7 70 2.6 NNE 30 41 16 22 1020.1 1020.0 0.0
19/09:00am 9.3 1.4 4.5 72 2.3 NNE 35 48 19 26 1020.0 1019.9 0.0
19/08:30am 8.4 0.4 4.0 74 2.0 NNE 35 44 19 24 1019.9 1019.8 0.0
19/08:00am 7.7 -0.3 3.6 75 1.9 NNE 35 50 19 27 1019.9 1019.8 0.0
19/07:30am 7.6 -0.5 3.3 74 2.0 NNE 35 44 19 24 1019.7 1019.5 0.0
19/07:00am 6.8 -2.1 3.1 77 1.7 NNE 39 50 21 27 1019.6 1019.4 0.0
19/06:30am 6.5 -1.7 2.9 78 1.6 NNE 35 44 19 24 1019.5 1019.3 0.0
19/06:00am 5.9 -2.6 3.2 83 1.2 NNE 37 46 20 25 1019.5 1019.3 0.0
19/05:30am 5.8 -2.9 4.1 89 0.8 NNE 39 50 21 27 1019.2 1019.1 0.0
19/05:00am 5.5 -3.1 4.8 95 0.3 NNE 39 48 21 26 1019.2 1019.1 0.0
19/04:33am 5.7 -2.2 4.3 91 0.6 NNE 35 54 19 29 1019.2 1019.1 0.0
19/04:30am 5.9 -2.4 4.4 90 0.7 NNE 37 54 20 29 1019.2 1019.1 0.0
19/04:00am 5.8 -2.0 4.8 93 0.5 NNE 35 44 19 24 1019.3 1019.2 0.0
19/03:30am 5.8 -2.1 4.4 91 0.6 NNE 35 50 19 27 1019.7 1019.5 0.0
19/03:00am 5.8 -3.5 5.2 96 0.3 NNE 43 61 23 33 1019.8 1019.7 0.0
19/02:37am 5.6 -3.2 5.5 99 0.0 NNE 41 65 22 35 1019.9 1019.8 0.0
19/02:30am 5.6 -3.6 5.5 99 0.0 NNE 43 52 23 28 1020.2 1020.1 0.0
19/02:00am 5.3 -2.4 5.2 99 0.0 NNE 35 43 19 23 1020.5 1020.3 0.0
19/01:30am 5.4 -2.5 4.4 93 0.5 NNE 35 41 19 22 1020.8 1020.7 0.0
19/01:00am 6.5 -2.7 3.5 81 1.4 NNE 41 56 22 30 1021.0 1020.9 0.0
19/12:30am 6.5 -3.4 2.6 76 1.7 NNE 44 57 24 31 1021.1 1021.0 0.0
19/12:00am 7.3 -1.5 1.6 67 2.5 NNE 37 50 20 27 1021.5 1021.4 0.0
 
Date/Time
EDT
Temp
°C
App
Temp
°C
Dew
Point
°C
Rel
Hum
%
Delta-T
°C
Wind Press
QNH
hPa
Press
MSL
hPa
Rain since
9am
mm
Dir  Spd
km/h
Gust
km/h
Spd
kts
Gust
kts
18/11:30pm 6.6 -0.5 1.5 70 2.2 NNE 28 37 15 20 1021.7 1021.6 0.0
18/11:00pm 6.5 -0.7 1.0 68 2.3 NE 28 35 15 19 1022.0 1021.9 0.0
18/10:30pm 7.3 -0.3 0.5 62 2.9 NE 30 39 16 21 1022.2 1022.2 0.0
18/10:00pm 7.2 1.3 1.5 67 2.5 NNE 22 28 12 15 1022.6 1022.5 0.0
18/09:30pm 7.6 0.9 1.7 66 2.6 N 26 33 14 18 1022.9 1022.9 0.0
18/09:00pm 8.3 1.9 3.2 70 2.3 N 26 30 14 16 1022.9 1022.9 0.0
18/08:30pm 9.1 2.8 3.7 69 2.5 N 26 33 14 18 1022.7 1022.6 0.0
18/08:00pm 10.7 6.9 7.4 80 1.7 N 17 26 9 14 1022.8 1022.7 0.0
18/07:30pm 11.4 8.7 7.5 77 2.0 NNE 11 17 6 9 1022.6 1022.5 0.0
18/07:00pm 13.0 11.8 8.1 72 2.6 ESE 4 9 2 5 1022.6 1022.5 0.0
18/06:30pm 12.4 10.1 7.3 71 2.6 S 9 13 5 7 1022.5 1022.4 0.0
18/06:00pm 12.9 9.9 7.6 70 2.7 SSW 13 17 7 9 1022.5 1022.4 0.0
18/05:30pm 13.4 11.2 8.0 70 2.8 SSW 9 17 5 9 1022.5 1022.4 0.0

Other Formats:

Comma delimited format used in spreadsheet applications
http://www.bom.gov.au/fwo/IDT60801/IDT60801.95952.axf

JavaScript Object Notation format (JSON) in row-major order
http://www.bom.gov.au/fwo/IDT60801/IDT60801.95952.json